Barksdale Air Force Base

KBAD · Luizjana, Stany Zjednoczone

Historia METAR KBAD · Barksdale Air Force Base

Poniżej widzisz METAR-y z ostatnich kilku dni. Wybierz rok, aby przeglądać starsze METAR-y, począwszy od roku 2007.

28 listopada 2022

Czas Kod Pogoda Temp. Widoczność Sufit Wiatr METAR/SPECI
03:25
L
6 °C ¾ mi - Var 000° 0 kt METAR KBAD 280925Z AUTO 00000KT 3/4SM R15/4000V6000FT BR CLR 06/05 A2997 RMK AO2 VIS 3/4V4 SLP153
03:05
M
6 °C 4 mi - Var 000° 0 kt METAR KBAD 280905Z AUTO 00000KT 4SM BR CLR 06/05 A2996 RMK AO2 VIS 1/2 RWY33 SLP149 $
02:55
I
6 °C 2 mi - Var 000° 0 kt METAR KBAD 280855Z AUTO 00000KT 2SM BR CLR 06/05 A2996 RMK AO2 VIS 7/8V2 VIS 3/8 RWY33 SLP149 T00600050 53001 $
02:45
L
6 °C ⅞ mi - Var 000° 0 kt SPECI KBAD 280845Z AUTO 00000KT 7/8SM R15/4000V5500FT BR CLR 06/04 A2997 RMK AO2 SLP153 $
02:35
L
6 °C ⅜ mi - Var 000° 0 kt METAR KBAD 280835Z AUTO 00000KT 3/8SM R15/1200V4500FT FG CLR 06/05 A2996 RMK AO2 VIS 1/4V1 5/8 SLP149 $
02:25
I
5 °C 2½ mi - 160° 160° 3 kt METAR KBAD 280825Z AUTO 16003KT 2 1/2SM BR CLR 05/04 A2996 RMK AO2 VIS 2 1/2V9 SLP149 $
02:05
I
6 °C 3 mi - 150° 150° 4 kt METAR KBAD 280805Z AUTO 15004KT 3SM BR CLR 06/05 A2996 RMK AO2 SLP149 $
01:55
I
5 °C 1¾ mi - 160° 160° 4 kt METAR KBAD 280755Z AUTO 16004KT 1 3/4SM BR CLR 05/04 A2996 RMK AO2 VIS 1 3/4V3 SLP149 T00530041 $
01:45
I
6 °C 2½ mi - 150° 150° 4 kt SPECI KBAD 280745Z AUTO 15004KT 2 1/2SM BR CLR 06/05 A2996 RMK AO2 VIS 5/8V2 1/2 SLP149 $
01:35
L
6 °C ½ mi - 150° 150° 4 kt METAR KBAD 280735Z AUTO 15004KT 1/2SM R15/2600VP6000FT FG CLR 06/05 A2996 RMK AO2 VIS 1/2V1 SLP149 $
01:25
I
5 °C 1 mi - 160° 160° 4 kt METAR KBAD 280725Z AUTO 16004KT 1SM R15/4000VP6000FT BR CLR 05/04 A2996 RMK AO2 VIS 7/8V5 SLP149 $
00:55
V
6 °C 10 mi - 150° 150° 4 kt METAR KBAD 280655Z AUTO 15004KT 10SM CLR 06/05 A2996 RMK AO2 SLP149 T00590047 $

27 listopada 2022

Czas Kod Pogoda Temp. Widoczność Sufit Wiatr METAR/SPECI
23:55
V
7 °C 7 mi - 150° 150° 4 kt METAR KBAD 280555Z AUTO 15004KT 7SM CLR 07/06 A2996 RMK AO2 SLP149 T00670055 10130 20067 401890062 52009 $
22:55
V
7 °C 7 mi - Var 000° 0 kt METAR KBAD 280455Z AUTO 00000KT 7SM CLR 07/06 A2996 RMK AO2 SLP150 T00720058 $
21:55
V
9 °C 10 mi - Var 000° 0 kt METAR KBAD 280355Z AUTO 00000KT 10SM CLR 09/07 A2994 RMK AO2 SLP143 T00870072 $
20:55
V
9 °C 9 mi - Var 000° 0 kt METAR KBAD 280255Z AUTO 00000KT 9SM CLR 09/07 A2994 RMK AO2 SLP143 T00910074 51011 $
19:55
V
11 °C 10 mi - Var 000° 0 kt METAR KBAD 280155Z AUTO 00000KT 10SM CLR 11/08 A2993 RMK AO2 SLP139 T01050079 $
18:55
V
13 °C 10 mi - Var 000° 0 kt METAR KBAD 280055Z AUTO 00000KT 10SM CLR 13/08 A2992 RMK AO2 SLP136 T01250080 $
17:55
V
13 °C 10 mi - 340° 340° 6 kt METAR KBAD 272355Z AUTO 34006KT 10SM CLR 13/08 A2990 RMK AO2 SLP129 T01310080 10189 20131 53018 $
16:55
V
17 °C 10 mi - 310° 310° 6 kt METAR KBAD 272255Z AUTO 31006KT 10SM CLR 17/08 A2987 RMK AO2 SLP119 T01700082 $
15:55
V
19 °C 10 mi - 280° 280° 5 kt METAR KBAD 272155Z AUTO 28005KT 10SM CLR 19/08 A2986 RMK AO2 SLP115 T01860077 $
14:55
V
19 °C 10 mi - 280° 280° 8 kt METAR KBAD 272055Z AUTO 28008KT 10SM CLR 19/08 A2985 RMK AO2 SLP112 T01880079 55009 $
13:55
V
18 °C 10 mi - 280° 280° 7 kt METAR KBAD 271955Z AUTO 28007KT 10SM CLR 18/08 A2985 RMK AO2 SLP112 T01820079 $
12:55
V
18 °C 10 mi - 250° 250° 5 kt METAR KBAD 271855Z AUTO 25005KT 10SM CLR 18/08 A2986 RMK AO2 SLP115 T01780075 $
11:55
V
17 °C 10 mi - 250° 250° 6 kt METAR KBAD 271755Z AUTO 25006KT 10SM CLR 17/07 A2988 RMK AO2 SLP122 T01650072 10165 20068 50004 $
10:55
V
15 °C 10 mi - 260° 260° 9 kt METAR KBAD 271655Z AUTO 26009KT 10SM CLR 15/07 A2989 RMK AO2 SLP126 T01470065 $
09:55
V
13 °C 10 mi - 260° 260° 9 kt METAR KBAD 271555Z AUTO 26009KT 10SM CLR 13/06 A2988 RMK AO2 SLP122 T01310062 $
08:55
V
12 °C 10 mi - 280° 280° 8 kt METAR KBAD 271455Z AUTO 28008KT 10SM CLR 12/05 A2987 RMK AO2 SLP119 T01150054 52020 $
07:55
V
9 °C 10 mi - 240° 240° 6 kt METAR KBAD 271355Z AUTO 24006KT 10SM CLR 09/05 A2985 RMK AO2 SLP112 T00860046 $
06:55
V
7 °C 10 mi - 230° 230° 4 kt METAR KBAD 271255Z AUTO 23004KT 10SM CLR 07/04 A2983 RMK AO2 SLP105 T00690039 $
05:55
V
7 °C 10 mi - 230° 230° 7 kt METAR KBAD 271155Z AUTO 23007KT 10SM CLR 07/04 A2981 RMK AO2 SLP099 70026 T00720042 10085 20062 53006 $
04:55
V
7 °C 10 mi - 210° 210° 6 kt METAR KBAD 271055Z AUTO 21006KT 10SM CLR 07/04 A2980 RMK AO2 SLP095 T00680039 $
03:55
V
7 °C 10 mi - 200° 200° 3 kt METAR KBAD 270955Z AUTO 20003KT 10SM CLR 07/04 A2979 RMK AO2 SLP092 T00670037 $
02:55
V
7 °C 10 mi - 200° 200° 5 kt METAR KBAD 270855Z AUTO 20005KT 10SM CLR 07/04 A2979 RMK AO2 SLP092 T00700038 52009 VISNO RWY33 $
01:55
V
7 °C 10 mi - 220° 220° 4 kt METAR KBAD 270755Z AUTO 22004KT 10SM CLR 07/04 A2978 RMK AO2 SLP089 T00720036
00:55
V
8 °C 10 mi - 200° 200° 5 kt METAR KBAD 270655Z AUTO 20005KT 10SM SCT065 08/04 A2977 RMK AO2 SLP085 T00780035

26 listopada 2022

Czas Kod Pogoda Temp. Widoczność Sufit Wiatr METAR/SPECI
23:55
V
9 °C 10 mi - 220° 220° 7 kt METAR KBAD 270555Z AUTO 22007KT 10SM CLR 09/04 A2976 RMK AO2 SLP082 T00850035 10152 20085 401620085 50011
22:55
V
9 °C 10 mi - 230° 230° 8 kt METAR KBAD 270455Z AUTO 23008KT 10SM CLR 09/03 A2976 RMK AO2 SLP082 T00920034
21:55
V
10 °C 10 mi - 250° 250° 10 kt METAR KBAD 270355Z AUTO 25010KT 10SM SCT032 10/03 A2974 RMK AO2 SLP075 T01030033
21:35
V
11 °C 10 mi 3.100 ft 260° 260° 17 - 24 kt METAR KBAD 270335Z AUTO 26017G24KT 10SM BKN031 11/05 A2974 RMK AO2 SLP075
20:55
V
12 °C 10 mi - 230° 230° 8 kt METAR KBAD 270255Z AUTO 23008KT 10SM SCT032 12/06 A2973 RMK AO2 SLP071 T01180063 52016
19:55
V
13 °C 10 mi - 240° 240° 9 kt METAR KBAD 270155Z AUTO 24009KT 10SM CLR 13/07 A2971 RMK AO2 PK WND 24026/14 SLP064 T01260068
19:05
V
14 °C 10 mi 3.800 ft 250° 250° 19 - 24 kt METAR KBAD 270105Z AUTO 25019G24KT 10SM SCT024 BKN038 OVC065 14/09 A2970 RMK AO2 SLP061
18:55
M
14 °C 10 mi 2.500 ft 250° 250° 15 - 18 kt METAR KBAD 270055Z AUTO 25015G18KT 10SM BKN025 BKN065 14/11 A2970 RMK AO2 CIG 025V034 SLP061 T01420106
17:55
V
15 °C 10 mi 4.100 ft 230° 230° 11 kt METAR KBAD 262355Z AUTO 23011KT 10SM BKN041 BKN048 15/12 A2968 RMK AO2 SLP054 60016 T01530119 10162 20140 53010
16:55
V
16 °C 10 mi 3.900 ft 240° 240° 14 - 20 kt METAR KBAD 262255Z AUTO 24014G20KT 10SM FEW011 BKN039 BKN049 16/15 A2965 RMK AO2 RAB2157E25 SLP044 P0001 T01600145
16:25
M
16 °C 10 mi 1.100 ft 220° 220° 8 kt METAR KBAD 262225Z AUTO 22008KT 10SM SCT003 OVC011 16/15 A2964 RMK AO2 RAB2157E25 CIG 003V011 SLP041
15:57
L
16 °C 10 mi 300 ft 210° 210° 5 kt METAR KBAD 262157Z AUTO 21005KT 10SM -RA OVC003 16/15 A2964 RMK AO2 RAB57 SLP041
15:55
L
16 °C 10 mi 300 ft 210° 210° 6 kt METAR KBAD 262155Z AUTO 21006KT 10SM OVC003 16/15 A2964 RMK AO2 SLP041 T01590151
15:15
L
16 °C 8 mi 300 ft 140° 140° 6 kt METAR KBAD 262115Z AUTO 14006KT 8SM OVC003 16/15 A2964 RMK AO2 SLP041
14:55
L
16 °C 10 mi 400 ft 200° 200° 3 kt METAR KBAD 262055Z AUTO 20003KT 10SM OVC004 16/15 A2965 RMK AO2 RAE37DZB37E38RAB38E39 SLP044 P0001 60015 T01570149 57047
14:49
L
16 °C 10 mi 400 ft 220° 220° 3 kt SPECI KBAD 262049Z AUTO 22003KT 10SM OVC004 16/15 A2966 RMK AO2 RAE37DZB37E38RAB38E39 SLP047
14:39
L
16 °C 10 mi 300 ft 230° 230° 4 kt METAR KBAD 262039Z AUTO 23004KT 10SM OVC003 16/15 A2966 RMK AO2 RAE37DZB37E38RAB38E39 SLP047
14:35
L
16 °C 10 mi 300 ft 240° 240° 4 kt METAR KBAD 262035Z AUTO 24004KT 10SM -RA OVC003 16/15 A2967 RMK AO2 SLP051
13:55
L
16 °C 10 mi 400 ft 140° 140° 6 kt METAR KBAD 261955Z AUTO 14006KT 10SM -RA OVC004 16/15 A2969 RMK AO2 RAE29RAB53 SLP058 P0001 T01570149
13:53
L
16 °C 10 mi 400 ft 140° 140° 7 kt METAR KBAD 261953Z AUTO 14007KT 10SM -RA OVC004 16/15 A2969 RMK AO2 RAE29RAB53 SLP058
13:29
L
15 °C 10 mi 300 ft 130° 130° 6 kt METAR KBAD 261929Z AUTO 13006KT 10SM OVC003 15/14 A2970 RMK AO2 RAE29 PRESFR SLP061
13:05
L
15 °C 4 mi 300 ft 120° 120° 5 kt METAR KBAD 261905Z AUTO 12005KT 4SM -RA BR OVC003 15/14 A2973 RMK AO2 VIS 2 3/4 RWY33 OVC V BKN SLP071
12:55
L
15 °C 5 mi 400 ft 100° 100° 4 kt METAR KBAD 261855Z AUTO 10004KT 5SM -RA BR BKN004 OVC007 15/14 A2974 RMK AO2 PRESFR SLP075 P0013 T01470137
12:35
L
14 °C 3 mi 400 ft 100° 100° 3 kt METAR KBAD 261835Z AUTO 10003KT 3SM RA BR BKN004 OVC010 14/13 A2976 RMK AO2 VIS 2 RWY33 BKN V OVC SLP081
12:25
L
14 °C 4 mi 300 ft Var 000° 0 kt METAR KBAD 261825Z AUTO 00000KT 4SM RA BR OVC003 14/13 A2976 RMK AO2 VIS 2 1/2 RWY33 SLP081
12:05
L
14 °C 3 mi 200 ft 110° 110° 3 kt METAR KBAD 261805Z AUTO 11003KT 3SM RA BR OVC002 14/13 A2978 RMK AO2 VIS 2 1/4 RWY33 SLP088
11:55
L
14 °C 2½ mi 300 ft Var 000° 0 kt METAR KBAD 261755Z AUTO 00000KT 2 1/2SM RA BR OVC003 14/13 A2979 RMK AO2 VIS 2 1/2V4 VIS 1 7/8 RWY33 SLP092 P0008 60010 T01390126 10140 20131 57040
10:55
I
14 °C 8 mi 500 ft 110° 110° 5 kt METAR KBAD 261655Z AUTO 11005KT 8SM -RA OVC005 14/12 A2985 RMK AO2 RAB16 SLP112 P0002 T01380124
10:16
I
14 °C 10 mi 500 ft 070° 070° 6 kt METAR KBAD 261616Z AUTO 07006KT 10SM -RA OVC005 14/12 A2986 RMK AO2 RAB16 SLP115
09:55
I
14 °C 10 mi 500 ft 100° 100° 9 kt METAR KBAD 261555Z AUTO 10009KT 10SM OVC005 14/12 A2986 RMK AO2 RAE37 SLP115 P0000 T01350121
09:37
I
14 °C 10 mi 500 ft 080° 080° 9 kt METAR KBAD 261537Z AUTO 08009KT 10SM OVC005 14/12 A2987 RMK AO2 RAE37 PRESFR SLP119
09:15
I
14 °C 6 mi 500 ft 090° 090° 6 kt METAR KBAD 261515Z AUTO 09006KT 6SM -RA BR OVC005 14/12 A2990 RMK AO2 SLP129 $
08:55
I
14 °C 10 mi 600 ft 100° 100° 6 kt METAR KBAD 261455Z AUTO 10006KT 10SM -RA OVC006 14/12 A2991 RMK AO2 RAB49 SLP132 P0000 60000 T01360116 55013 $
08:13
I
13 °C 10 mi 600 ft 090° 090° 8 kt METAR KBAD 261413Z AUTO 09008KT 10SM OVC006 13/11 A2990 RMK AO2 SLP129 $
07:55
I
13 °C 10 mi 700 ft 060° 060° 5 kt METAR KBAD 261355Z AUTO 06005KT 10SM OVC007 13/11 A2991 RMK AO2 RAB11E23DZB23E25RAB25E28 SLP132 P0000 T01320113 $
07:28
I
13 °C 10 mi 700 ft 060° 060° 4 kt METAR KBAD 261328Z AUTO 06004KT 10SM OVC007 13/11 A2993 RMK AO2 RAB11E23DZB23E25RAB25E28 SLP139 $
07:11
I
13 °C 10 mi 700 ft 080° 080° 7 kt METAR KBAD 261311Z AUTO 08007KT 10SM -RA OVC007 13/11 A2993 RMK AO2 RAB11 SLP139 $
06:55
I
13 °C 10 mi 700 ft 070° 070° 6 kt METAR KBAD 261255Z AUTO 07006KT 10SM OVC007 13/11 A2993 RMK AO2 SLP139 T01310110 $
05:55
I
13 °C 10 mi 700 ft 050° 050° 5 kt METAR KBAD 261155Z AUTO 05005KT 10SM OVC007 13/11 A2995 RMK AO2 SLP146 T01310110 10134 20130 57021 $
05:05
I
13 °C 10 mi 700 ft 070° 070° 6 kt METAR KBAD 261105Z AUTO 07006KT 10SM OVC007 13/11 A2996 RMK AO2 SLP149 $
04:55
I
13 °C 10 mi 800 ft 070° 070° 7 kt METAR KBAD 261055Z AUTO 07007KT 10SM OVC008 13/11 A2996 RMK AO2 CIG 007 RWY33 SLP149 T01310108 $
03:55
I
13 °C 10 mi 900 ft 020° 020° 4 kt METAR KBAD 260955Z AUTO 02004KT 10SM OVC009 13/11 A3000 RMK AO2 PRESRR SLP163 T01310108 $
03:35
I
13 °C 10 mi 900 ft 070° 070° 6 kt METAR KBAD 260935Z AUTO 07006KT 10SM BKN009 OVC013 13/11 A2998 RMK AO2 CIG 009V013 BKN V SCT SLP156 $
02:55
M
13 °C 10 mi 1.300 ft 060° 060° 6 kt METAR KBAD 260855Z AUTO 06006KT 10SM OVC013 13/11 A3001 RMK AO2 SLP166 T01310108 57033 $
02:05
M
13 °C 10 mi 1.400 ft 040° 040° 3 kt METAR KBAD 260805Z AUTO 04003KT 10SM OVC014 13/11 A3005 RMK AO2 SLP180 $
01:55
M
13 °C 10 mi 1.600 ft 040° 040° 4 kt METAR KBAD 260755Z AUTO 04004KT 10SM OVC016 13/11 A3005 RMK AO2 SLP180 T01330108 $

My i strony trzecie śledzimy Twoje zachowanie internetowe na naszej stronie za pomocą plików cookie. Jeśli kontynuujesz, zakładamy, że zgadzasz się z naszymi polityka plików cookie.